createdAt,value
2017-12-27T00:00:38.591Z,0
2017-12-27T00:01:38.620Z,0
2017-12-27T00:02:38.558Z,0
2017-12-27T00:03:38.574Z,0
2017-12-27T00:04:38.800Z,0
2017-12-27T00:05:38.553Z,0
2017-12-27T00:06:38.791Z,0
2017-12-27T00:07:38.805Z,0
2017-12-27T00:08:38.528Z,0
2017-12-27T00:09:38.755Z,0
2017-12-27T00:10:38.491Z,0
2017-12-27T00:11:38.459Z,0
2017-12-27T00:12:38.694Z,0
2017-12-27T00:13:38.500Z,0
2017-12-27T00:14:38.217Z,0
2017-12-27T00:15:38.730Z,0
2017-12-27T00:16:38.438Z,0
2017-12-27T00:17:38.159Z,0
2017-12-27T00:18:38.695Z,0
2017-12-27T00:19:38.693Z,0
2017-12-27T00:20:38.407Z,0
2017-12-27T00:21:38.626Z,0
2017-12-27T00:22:38.621Z,0
2017-12-27T00:23:38.363Z,0
2017-12-27T00:24:38.617Z,0
2017-12-27T00:25:38.350Z,0
2017-12-27T00:26:38.814Z,0
2017-12-27T00:27:38.842Z,0
2017-12-27T00:28:38.052Z,0
2017-12-27T00:29:38.524Z,0
2017-12-27T00:30:38.018Z,0
2017-12-27T00:31:39.247Z,0
2017-12-27T00:32:38.497Z,0
2017-12-27T00:33:38.761Z,0
2017-12-27T00:34:38.765Z,0
2017-12-27T00:35:38.482Z,0
2017-12-27T00:36:37.712Z,0
2017-12-27T00:37:38.470Z,0
2017-12-27T00:38:38.192Z,0
2017-12-27T00:39:38.193Z,0
2017-12-27T00:40:37.918Z,0
2017-12-27T00:41:38.171Z,0
2017-12-27T00:42:38.166Z,0
2017-12-27T00:43:38.424Z,0
2017-12-27T00:44:38.139Z,0
2017-12-27T00:45:37.881Z,0
2017-12-27T00:46:38.427Z,0
2017-12-27T00:47:37.606Z,0
2017-12-27T00:48:38.357Z,0
2017-12-27T00:49:38.090Z,0
2017-12-27T00:50:38.336Z,0
2017-12-27T00:51:38.589Z,0
2017-12-27T00:52:38.565Z,0
2017-12-27T00:53:38.082Z,0
2017-12-27T00:54:38.297Z,0
2017-12-27T00:55:38.294Z,0
2017-12-27T00:56:37.775Z,0
2017-12-27T00:57:38.016Z,0
2017-12-27T00:58:38.256Z,0
2017-12-27T00:59:37.997Z,0
2017-12-27T01:00:38.488Z,0
2017-12-27T01:01:38.234Z,0
2017-12-27T01:02:39.568Z,0
2017-12-27T01:03:37.956Z,0
2017-12-27T01:04:38.450Z,0
2017-12-27T01:05:37.939Z,0
2017-12-27T01:06:38.433Z,0
2017-12-27T01:07:38.425Z,0
2017-12-27T01:08:38.454Z,0
2017-12-27T01:09:38.405Z,0
2017-12-27T01:10:38.138Z,0
2017-12-27T01:11:37.631Z,0
2017-12-27T01:12:38.117Z,0
2017-12-27T01:13:38.125Z,0
2017-12-27T01:14:37.862Z,0
2017-12-27T01:15:37.869Z,0
2017-12-27T01:16:37.831Z,0
2017-12-27T01:17:38.074Z,0
2017-12-27T01:18:38.324Z,0
2017-12-27T01:19:38.056Z,0
2017-12-27T01:20:37.547Z,0
2017-12-27T01:21:38.302Z,0
2017-12-27T01:22:38.022Z,0
2017-12-27T01:23:37.769Z,0
2017-12-27T01:24:38.009Z,0
2017-12-27T01:25:38.019Z,0
2017-12-27T01:26:37.986Z,0
2017-12-27T01:27:38.249Z,0
2017-12-27T01:28:37.969Z,0
2017-12-27T01:29:37.969Z,0
2017-12-27T01:30:37.705Z,0
2017-12-27T01:31:38.193Z,0
2017-12-27T01:32:37.924Z,0
2017-12-27T01:33:37.916Z,0
2017-12-27T01:34:38.165Z,0
2017-12-27T01:35:37.910Z,0
2017-12-27T01:36:37.635Z,0
2017-12-27T01:37:37.628Z,0
2017-12-27T01:38:37.870Z,0
2017-12-27T01:39:37.605Z,0
2017-12-27T01:40:37.353Z,0
2017-12-27T01:41:37.587Z,0
2017-12-27T01:42:37.829Z,0
2017-12-27T01:43:37.560Z,0
2017-12-27T01:44:37.822Z,0
2017-12-27T01:45:37.551Z,0
2017-12-27T01:46:37.851Z,0
2017-12-27T01:47:37.801Z,0
2017-12-27T01:48:37.519Z,0
2017-12-27T01:49:37.761Z,0
2017-12-27T01:50:37.501Z,0
2017-12-27T01:51:37.236Z,0
2017-12-27T01:52:37.481Z,0
2017-12-27T01:53:37.746Z,0
2017-12-27T01:54:37.456Z,0
2017-12-27T01:55:37.959Z,0
2017-12-27T01:56:37.696Z,0
2017-12-27T01:57:37.684Z,0
2017-12-27T01:58:37.928Z,0
2017-12-27T01:59:37.408Z,0
2017-12-27T02:00:37.411Z,0
2017-12-27T02:01:37.651Z,0
2017-12-27T02:02:39.989Z,0
2017-12-27T02:03:37.626Z,0
2017-12-27T02:04:37.125Z,0
2017-12-27T02:05:37.365Z,0
2017-12-27T02:06:37.347Z,0
2017-12-27T02:07:37.332Z,0
2017-12-27T02:08:37.321Z,0
2017-12-27T02:09:37.073Z,0
2017-12-27T02:10:37.314Z,0
2017-12-27T02:11:37.302Z,0
2017-12-27T02:12:37.535Z,0
2017-12-27T02:13:37.526Z,0
2017-12-27T02:14:37.522Z,0
2017-12-27T02:15:37.265Z,0
2017-12-27T02:16:37.530Z,0
2017-12-27T02:17:37.257Z,0
2017-12-27T02:18:37.481Z,0
2017-12-27T02:19:37.221Z,0
2017-12-27T02:20:37.470Z,0
2017-12-27T02:21:37.720Z,0
2017-12-27T02:22:37.468Z,0
2017-12-27T02:23:37.181Z,0
2017-12-27T02:24:37.430Z,0
2017-12-27T02:25:37.667Z,0
2017-12-27T02:26:37.404Z,0
2017-12-27T02:27:37.393Z,0
2017-12-27T02:28:37.145Z,0
2017-12-27T02:29:37.376Z,0
2017-12-27T02:30:37.370Z,0
2017-12-27T02:31:37.121Z,0
2017-12-27T02:32:38.163Z,0
2017-12-27T02:33:37.372Z,0
2017-12-27T02:34:37.589Z,0
2017-12-27T02:35:37.085Z,0
2017-12-27T02:36:37.067Z,0
2017-12-27T02:37:37.309Z,0
2017-12-27T02:38:37.300Z,0
2017-12-27T02:39:37.542Z,0
2017-12-27T02:40:37.537Z,0
2017-12-27T02:41:37.017Z,0
2017-12-27T02:42:37.014Z,0
2017-12-27T02:43:37.249Z,0
2017-12-27T02:44:36.992Z,0
2017-12-27T02:45:37.589Z,0
2017-12-27T02:46:37.319Z,0
2017-12-27T02:47:37.230Z,0
2017-12-27T02:48:37.208Z,0
2017-12-27T02:49:37.221Z,0
2017-12-27T02:50:37.451Z,0
2017-12-27T02:51:37.202Z,0
2017-12-27T02:52:37.431Z,0
2017-12-27T02:53:36.913Z,0
2017-12-27T02:54:37.427Z,0
2017-12-27T02:55:37.163Z,0
2017-12-27T02:56:37.388Z,0
2017-12-27T02:57:37.140Z,0
2017-12-27T02:58:37.132Z,0
2017-12-27T02:59:37.120Z,0
2017-12-27T03:00:37.114Z,0
2017-12-27T03:01:36.856Z,0
2017-12-27T03:02:37.082Z,0
2017-12-27T03:03:38.385Z,0
2017-12-27T03:04:37.068Z,0
2017-12-27T03:05:37.061Z,0
2017-12-27T03:06:36.843Z,0
2017-12-27T03:07:36.844Z,0
2017-12-27T03:08:36.790Z,0
2017-12-27T03:09:37.275Z,0
2017-12-27T03:10:36.770Z,0
2017-12-27T03:11:37.012Z,0
2017-12-27T03:12:36.499Z,0
2017-12-27T03:13:37.253Z,0
2017-12-27T03:14:37.238Z,0
2017-12-27T03:15:36.219Z,0
2017-12-27T03:16:37.224Z,0
2017-12-27T03:17:36.963Z,0
2017-12-27T03:18:36.703Z,0
2017-12-27T03:19:36.942Z,0
2017-12-27T03:20:37.229Z,0
2017-12-27T03:21:36.678Z,0
2017-12-27T03:22:36.913Z,0
2017-12-27T03:23:36.910Z,0
2017-12-27T03:24:36.404Z,0
2017-12-27T03:25:36.903Z,0
2017-12-27T03:26:36.664Z,0
2017-12-27T03:27:36.891Z,0
2017-12-27T03:28:36.624Z,0
2017-12-27T03:29:36.610Z,0
2017-12-27T03:30:36.870Z,0
2017-12-27T03:31:36.855Z,0
2017-12-27T03:32:37.096Z,0
2017-12-27T03:33:37.628Z,0
2017-12-27T03:34:37.082Z,0
2017-12-27T03:35:36.825Z,0
2017-12-27T03:36:36.554Z,0
2017-12-27T03:37:36.539Z,0
2017-12-27T03:38:36.302Z,0
2017-12-27T03:39:36.287Z,0
2017-12-27T03:40:36.511Z,0
2017-12-27T03:41:36.756Z,0
2017-12-27T03:42:36.757Z,0
2017-12-27T03:43:36.738Z,0
2017-12-27T03:44:36.238Z,0
2017-12-27T03:45:36.731Z,0
2017-12-27T03:46:36.720Z,0
2017-12-27T03:47:36.713Z,0
2017-12-27T03:48:36.951Z,0
2017-12-27T03:49:36.947Z,0
2017-12-27T03:50:36.942Z,0
2017-12-27T03:51:36.940Z,0
2017-12-27T03:52:36.942Z,0
2017-12-27T03:53:36.159Z,0
2017-12-27T03:54:36.409Z,0
2017-12-27T03:55:36.649Z,0
2017-12-27T03:56:36.422Z,0
2017-12-27T03:57:36.887Z,0
2017-12-27T03:58:36.629Z,0
2017-12-27T03:59:36.874Z,0
2017-12-27T04:00:36.352Z,0
2017-12-27T04:01:36.364Z,0
2017-12-27T04:02:36.085Z,0
2017-12-27T04:03:41.645Z,0
2017-12-27T04:04:36.332Z,0
2017-12-27T04:05:36.843Z,0
2017-12-27T04:06:36.810Z,0
2017-12-27T04:07:36.801Z,0
2017-12-27T04:08:36.794Z,0
2017-12-27T04:09:36.541Z,0
2017-12-27T04:10:36.018Z,0
2017-12-27T04:11:36.774Z,0
2017-12-27T04:12:36.527Z,0
2017-12-27T04:13:36.760Z,0
2017-12-27T04:14:36.488Z,0
2017-12-27T04:15:36.744Z,0
2017-12-27T04:16:36.473Z,0
2017-12-27T04:17:35.973Z,0
2017-12-27T04:18:36.726Z,0
2017-12-27T04:19:36.508Z,0
2017-12-27T04:20:36.737Z,0
2017-12-27T04:21:36.473Z,0
2017-12-27T04:22:36.431Z,0
2017-12-27T04:23:36.183Z,0
2017-12-27T04:24:36.180Z,0
2017-12-27T04:25:36.402Z,0
2017-12-27T04:26:36.410Z,0
2017-12-27T04:27:36.649Z,0
2017-12-27T04:28:36.377Z,0
2017-12-27T04:29:36.364Z,0
2017-12-27T04:30:36.360Z,0
2017-12-27T04:31:36.359Z,0
2017-12-27T04:32:36.599Z,0
2017-12-27T04:33:36.092Z,0
2017-12-27T04:34:36.319Z,0
2017-12-27T04:35:36.317Z,0
2017-12-27T04:36:36.554Z,0
2017-12-27T04:37:36.290Z,0
2017-12-27T04:38:36.039Z,0
2017-12-27T04:39:36.279Z,0
2017-12-27T04:40:36.014Z,0
2017-12-27T04:41:36.020Z,0
2017-12-27T04:42:36.501Z,0
2017-12-27T04:43:36.519Z,0
2017-12-27T04:44:36.252Z,0
2017-12-27T04:45:36.496Z,0
2017-12-27T04:46:35.970Z,0
2017-12-27T04:47:35.955Z,0
2017-12-27T04:48:35.948Z,0
2017-12-27T04:49:36.248Z,0
2017-12-27T04:50:35.986Z,0
2017-12-27T04:51:36.189Z,0
2017-12-27T04:52:35.918Z,0
2017-12-27T04:53:36.417Z,0
2017-12-27T04:54:36.155Z,0
2017-12-27T04:55:35.887Z,0
2017-12-27T04:56:36.149Z,0
2017-12-27T04:57:36.389Z,0
2017-12-27T04:58:36.123Z,0
2017-12-27T04:59:36.379Z,0
2017-12-27T05:00:36.359Z,0
2017-12-27T05:01:36.098Z,0
2017-12-27T05:02:36.098Z,0
2017-12-27T05:03:36.336Z,0
2017-12-27T05:04:36.227Z,0
2017-12-27T05:05:36.070Z,0
2017-12-27T05:06:35.811Z,0
2017-12-27T05:07:35.815Z,0
2017-12-27T05:08:35.838Z,0
2017-12-27T05:09:36.078Z,0
2017-12-27T05:10:35.533Z,0
2017-12-27T05:11:36.068Z,0
2017-12-27T05:12:35.774Z,0
2017-12-27T05:13:36.019Z,0
2017-12-27T05:14:36.259Z,0
2017-12-27T05:15:36.234Z,0
2017-12-27T05:16:35.979Z,0
2017-12-27T05:17:36.243Z,0
2017-12-27T05:18:35.981Z,0
2017-12-27T05:19:35.965Z,0
2017-12-27T05:20:35.434Z,0
2017-12-27T05:21:35.945Z,0
2017-12-27T05:22:36.184Z,0
2017-12-27T05:23:35.938Z,0
2017-12-27T05:24:35.428Z,0
2017-12-27T05:25:35.909Z,0
2017-12-27T05:26:36.143Z,0
2017-12-27T05:27:36.169Z,0
2017-12-27T05:28:35.641Z,0
2017-12-27T05:29:35.894Z,0
2017-12-27T05:30:36.118Z,0
2017-12-27T05:31:36.123Z,0
2017-12-27T05:32:35.875Z,0
2017-12-27T05:33:35.597Z,0
2017-12-27T05:34:36.349Z,0
2017-12-27T05:35:35.368Z,0
2017-12-27T05:36:35.828Z,0
2017-12-27T05:37:35.562Z,0
2017-12-27T05:38:36.111Z,0
2017-12-27T05:39:35.796Z,0
2017-12-27T05:40:36.148Z,0
2017-12-27T05:41:35.797Z,0
2017-12-27T05:42:35.541Z,0
2017-12-27T05:43:35.783Z,0
2017-12-27T05:44:35.265Z,0
2017-12-27T05:45:35.754Z,0
2017-12-27T05:46:35.247Z,0
2017-12-27T05:47:36.005Z,0
2017-12-27T05:48:35.971Z,0
2017-12-27T05:49:35.716Z,0
2017-12-27T05:50:35.729Z,0
2017-12-27T05:51:35.443Z,0
2017-12-27T05:52:35.689Z,0
2017-12-27T05:53:35.690Z,0
2017-12-27T05:54:35.672Z,0
2017-12-27T05:55:35.404Z,0
2017-12-27T05:56:35.653Z,0
2017-12-27T05:57:35.148Z,0
2017-12-27T05:58:35.382Z,0
2017-12-27T05:59:35.371Z,0
2017-12-27T06:00:35.871Z,0
2017-12-27T06:01:35.614Z,0
2017-12-27T06:02:35.852Z,0
2017-12-27T06:03:35.590Z,0
2017-12-27T06:04:38.753Z,0
2017-12-27T06:05:35.625Z,0
2017-12-27T06:06:35.622Z,0
2017-12-27T06:07:35.569Z,0
2017-12-27T06:08:35.815Z,0
2017-12-27T06:09:35.825Z,0
2017-12-27T06:10:35.295Z,0
2017-12-27T06:11:35.538Z,0
2017-12-27T06:12:35.030Z,0
2017-12-27T06:13:35.031Z,0
2017-12-27T06:14:35.513Z,0
2017-12-27T06:15:35.246Z,0
2017-12-27T06:16:35.249Z,0
2017-12-27T06:17:35.482Z,0
2017-12-27T06:18:35.486Z,0
2017-12-27T06:19:35.722Z,0
2017-12-27T06:20:35.717Z,0
2017-12-27T06:21:34.956Z,0
2017-12-27T06:22:35.447Z,0
2017-12-27T06:23:35.694Z,0
2017-12-27T06:24:35.431Z,0
2017-12-27T06:25:35.434Z,0
2017-12-27T06:26:35.160Z,0
2017-12-27T06:27:35.411Z,0
2017-12-27T06:28:35.409Z,0
2017-12-27T06:29:35.649Z,0
2017-12-27T06:30:34.884Z,0
2017-12-27T06:31:34.948Z,0
2017-12-27T06:32:35.365Z,0
2017-12-27T06:33:35.661Z,0
2017-12-27T06:34:35.361Z,0
2017-12-27T06:35:40.624Z,0
2017-12-27T06:36:34.834Z,0
2017-12-27T06:37:34.828Z,0
2017-12-27T06:38:35.580Z,0
2017-12-27T06:39:35.316Z,0
2017-12-27T06:40:35.561Z,0
2017-12-27T06:41:35.298Z,0
2017-12-27T06:42:35.379Z,0
2017-12-27T06:43:35.298Z,0
2017-12-27T06:44:35.279Z,0
2017-12-27T06:45:35.020Z,0
2017-12-27T06:46:35.257Z,0
2017-12-27T06:47:35.006Z,0
2017-12-27T06:48:35.002Z,0
2017-12-27T06:49:35.235Z,0
2017-12-27T06:50:35.250Z,0
2017-12-27T06:51:34.976Z,0
2017-12-27T06:52:35.462Z,0
2017-12-27T06:53:35.206Z,0
2017-12-27T06:54:34.705Z,0
2017-12-27T06:55:35.436Z,0
2017-12-27T06:56:35.184Z,0
2017-12-27T06:57:35.176Z,0
2017-12-27T06:58:35.424Z,0
2017-12-27T06:59:34.916Z,0
2017-12-27T07:00:34.915Z,0
2017-12-27T07:01:35.165Z,0
2017-12-27T07:02:34.887Z,0
2017-12-27T07:03:35.390Z,0
2017-12-27T07:04:34.621Z,0
2017-12-27T07:05:35.362Z,0
2017-12-27T07:06:36.159Z,0
2017-12-27T07:07:35.358Z,0
2017-12-27T07:08:35.096Z,0
2017-12-27T07:09:34.834Z,0
2017-12-27T07:10:35.072Z,0
2017-12-27T07:11:35.067Z,0
2017-12-27T07:12:35.368Z,0
2017-12-27T07:13:35.061Z,0
2017-12-27T07:14:35.298Z,0
2017-12-27T07:15:34.547Z,0
2017-12-27T07:16:35.287Z,0
2017-12-27T07:17:35.275Z,0
2017-12-27T07:18:34.767Z,0
2017-12-27T07:19:35.010Z,0
2017-12-27T07:20:35.248Z,0
2017-12-27T07:21:35.560Z,0
2017-12-27T07:22:34.990Z,0
2017-12-27T07:23:34.973Z,0
2017-12-27T07:24:35.230Z,0
2017-12-27T07:25:35.210Z,0
2017-12-27T07:26:34.729Z,0
2017-12-27T07:27:35.195Z,0
2017-12-27T07:28:34.941Z,0
2017-12-27T07:29:34.671Z,0
2017-12-27T07:30:34.920Z,0
2017-12-27T07:31:34.670Z,0
2017-12-27T07:32:35.169Z,5
2017-12-27T07:33:34.897Z,5
2017-12-27T07:34:34.398Z,5
2017-12-27T07:35:35.134Z,5
2017-12-27T07:36:36.222Z,5
2017-12-27T07:37:34.878Z,5
2017-12-27T07:38:34.860Z,5
2017-12-27T07:39:35.108Z,5
2017-12-27T07:40:34.862Z,5
2017-12-27T07:41:34.594Z,10
2017-12-27T07:42:35.088Z,10
2017-12-27T07:43:34.822Z,10
2017-12-27T07:44:34.819Z,10
2017-12-27T07:45:35.060Z,10
2017-12-27T07:46:34.301Z,10
2017-12-27T07:47:35.057Z,15
2017-12-27T07:48:34.793Z,15
2017-12-27T07:49:34.781Z,15
2017-12-27T07:50:34.771Z,15
2017-12-27T07:51:34.765Z,15
2017-12-27T07:52:34.263Z,20
2017-12-27T07:53:34.759Z,20
2017-12-27T07:54:34.743Z,20
2017-12-27T07:55:34.730Z,20
2017-12-27T07:56:34.736Z,20
2017-12-27T07:57:34.218Z,25
2017-12-27T07:58:34.467Z,25
2017-12-27T07:59:34.705Z,25
2017-12-27T08:00:34.938Z,25
2017-12-27T08:01:34.442Z,25
2017-12-27T08:02:34.432Z,25
2017-12-27T08:03:34.676Z,25
2017-12-27T08:04:34.661Z,25
2017-12-27T08:05:34.660Z,25
2017-12-27T08:06:34.655Z,25
2017-12-27T08:07:34.380Z,25
2017-12-27T08:08:34.632Z,25
2017-12-27T08:09:34.621Z,25
2017-12-27T08:10:34.623Z,30
2017-12-27T08:11:34.605Z,30
2017-12-27T08:12:34.593Z,30
2017-12-27T08:13:34.599Z,35
2017-12-27T08:14:34.586Z,35
2017-12-27T08:15:34.591Z,35
2017-12-27T08:16:35.388Z,35
2017-12-27T08:17:34.822Z,40
2017-12-27T08:18:34.066Z,40
2017-12-27T08:19:34.541Z,40
2017-12-27T08:20:34.314Z,40
2017-12-27T08:21:34.539Z,45
2017-12-27T08:22:34.043Z,45
2017-12-27T08:23:34.784Z,45
2017-12-27T08:24:34.778Z,45
2017-12-27T08:25:34.502Z,45
2017-12-27T08:26:34.246Z,45
2017-12-27T08:27:34.760Z,45
2017-12-27T08:28:34.756Z,45
2017-12-27T08:29:34.487Z,45
2017-12-27T08:30:34.734Z,45
2017-12-27T08:31:33.962Z,45
2017-12-27T08:32:34.219Z,45
2017-12-27T08:33:34.196Z,45
2017-12-27T08:34:34.696Z,50
2017-12-27T08:35:34.431Z,45
2017-12-27T08:37:06.541Z,40
2017-12-27T08:37:38.431Z,40
2017-12-27T08:38:34.179Z,40
2017-12-27T08:39:34.406Z,40
2017-12-27T08:40:34.136Z,40
2017-12-27T08:41:34.650Z,40
2017-12-27T08:42:34.122Z,35
2017-12-27T08:43:34.123Z,35
2017-12-27T08:44:34.108Z,35
2017-12-27T08:45:34.094Z,35
2017-12-27T08:46:34.601Z,35
2017-12-27T08:47:34.340Z,40
2017-12-27T08:48:34.583Z,40
2017-12-27T08:49:34.334Z,40
2017-12-27T08:50:34.579Z,45
2017-12-27T08:51:34.081Z,45
2017-12-27T08:52:34.562Z,45
2017-12-27T08:53:34.570Z,45
2017-12-27T08:54:34.556Z,45
2017-12-27T08:55:34.293Z,45
2017-12-27T08:56:34.012Z,45
2017-12-27T08:57:34.519Z,45
2017-12-27T08:58:34.282Z,45
2017-12-27T08:59:34.015Z,45
2017-12-27T09:00:34.258Z,45
2017-12-27T09:01:34.513Z,45
2017-12-27T09:02:34.497Z,45
2017-12-27T09:03:34.490Z,45
2017-12-27T09:04:34.212Z,45
2017-12-27T09:05:34.473Z,45
2017-12-27T09:06:34.217Z,45
2017-12-27T09:07:34.750Z,45
2017-12-27T09:08:34.217Z,45
2017-12-27T09:09:33.924Z,45
2017-12-27T09:10:33.916Z,45
2017-12-27T09:11:34.424Z,45
2017-12-27T09:12:33.906Z,45
2017-12-27T09:13:34.156Z,45
2017-12-27T09:14:33.966Z,45
2017-12-27T09:15:34.388Z,45
2017-12-27T09:16:33.874Z,45
2017-12-27T09:17:35.170Z,45
2017-12-27T09:18:33.610Z,45
2017-12-27T09:19:34.117Z,45
2017-12-27T09:20:34.353Z,45
2017-12-27T09:21:33.613Z,45
2017-12-27T09:22:35.580Z,50
2017-12-27T09:23:33.833Z,50
2017-12-27T09:24:33.811Z,50
2017-12-27T09:25:33.812Z,50
2017-12-27T09:26:34.309Z,50
2017-12-27T09:27:34.302Z,50
2017-12-27T09:28:34.056Z,50
2017-12-27T09:29:34.104Z,50
2017-12-27T09:30:33.519Z,50
2017-12-27T09:31:34.015Z,50
2017-12-27T09:32:34.002Z,50
2017-12-27T09:33:33.754Z,50
2017-12-27T09:34:34.252Z,50
2017-12-27T09:35:34.256Z,50
2017-12-27T09:36:33.980Z,50
2017-12-27T09:37:33.977Z,50
2017-12-27T09:38:36.134Z,50
2017-12-27T09:39:33.990Z,50
2017-12-27T09:40:33.945Z,50
2017-12-27T09:41:34.197Z,50
2017-12-27T09:42:33.726Z,50
2017-12-27T09:43:33.947Z,50
2017-12-27T09:44:33.921Z,45
2017-12-27T09:45:33.665Z,45
2017-12-27T09:46:34.165Z,45
2017-12-27T09:47:33.422Z,45
2017-12-27T09:48:33.894Z,45
2017-12-27T09:49:33.394Z,45
2017-12-27T09:50:33.641Z,45
2017-12-27T09:51:33.390Z,45
2017-12-27T09:52:33.895Z,45
2017-12-27T09:53:33.857Z,45
2017-12-27T09:54:34.117Z,45
2017-12-27T09:55:33.862Z,45
2017-12-27T09:56:33.595Z,45
2017-12-27T09:57:33.840Z,50
2017-12-27T09:58:34.078Z,50
2017-12-27T09:59:34.069Z,50
2017-12-27T10:00:34.081Z,50
2017-12-27T10:01:34.077Z,50
2017-12-27T10:02:33.811Z,55
2017-12-27T10:03:34.052Z,55
2017-12-27T10:04:34.045Z,60
2017-12-27T10:05:34.055Z,65
2017-12-27T10:06:33.766Z,70
2017-12-27T10:07:33.767Z,75
2017-12-27T10:08:35.503Z,80
2017-12-27T10:09:33.502Z,85
2017-12-27T10:10:34.009Z,90
2017-12-27T10:11:33.495Z,90
2017-12-27T10:12:33.489Z,90
2017-12-27T10:13:33.729Z,85
2017-12-27T10:14:33.750Z,85
2017-12-27T10:15:33.200Z,75
2017-12-27T10:16:33.190Z,75
2017-12-27T10:17:33.964Z,70
2017-12-27T10:18:33.947Z,70
2017-12-27T10:19:33.957Z,80
2017-12-27T10:20:33.693Z,85
2017-12-27T10:21:33.680Z,80
2017-12-27T10:22:33.146Z,75
2017-12-27T10:52:54.116Z,80
2017-12-27T10:53:54.354Z,85
2017-12-27T10:54:54.085Z,85
2017-12-27T10:55:54.581Z,85
2017-12-27T10:56:54.105Z,80
2017-12-27T10:57:54.050Z,75
2017-12-27T10:58:54.295Z,75
2017-12-27T10:59:54.290Z,70
2017-12-27T11:00:54.294Z,65
2017-12-27T11:01:54.273Z,65
2017-12-27T11:02:54.006Z,60
2017-12-27T11:03:54.000Z,60
2017-12-27T11:04:53.982Z,60
2017-12-27T11:05:53.977Z,60
2017-12-27T11:06:54.240Z,60
2017-12-27T11:07:54.225Z,65
2017-12-27T11:08:54.473Z,65
2017-12-27T11:09:54.200Z,65
2017-12-27T11:10:54.446Z,70
2017-12-27T11:11:53.730Z,70
2017-12-27T11:12:53.437Z,80
2017-12-27T11:13:53.679Z,80
2017-12-27T11:14:53.935Z,85
2017-12-27T11:15:53.676Z,85
2017-12-27T11:16:54.143Z,85
2017-12-27T11:17:54.158Z,90
2017-12-27T11:18:54.142Z,95
2017-12-27T11:19:53.643Z,95
2017-12-27T11:20:53.884Z,100
2017-12-27T11:21:54.135Z,105
2017-12-27T11:22:54.119Z,105
2017-12-27T11:23:53.385Z,110
2017-12-27T11:24:54.341Z,110
2017-12-27T11:25:54.079Z,110
2017-12-27T11:26:54.320Z,110
2017-12-27T11:27:54.321Z,115
2017-12-27T11:28:53.816Z,115
2017-12-27T11:29:53.800Z,110
2017-12-27T11:30:53.804Z,110
2017-12-27T11:31:53.816Z,105
2017-12-27T11:32:53.292Z,105
2017-12-27T11:33:54.033Z,105
2017-12-27T11:34:54.284Z,105
2017-12-27T11:35:54.035Z,100
2017-12-27T11:36:54.261Z,95
2017-12-27T11:37:54.006Z,95
2017-12-27T11:38:54.265Z,95
2017-12-27T11:39:53.768Z,100
2017-12-27T11:40:53.762Z,110
2017-12-27T11:41:54.240Z,110
2017-12-27T11:42:53.982Z,110
2017-12-27T11:43:53.787Z,110
2017-12-27T11:44:54.242Z,115
2017-12-27T11:45:53.996Z,115
2017-12-27T11:46:54.162Z,120
2017-12-27T11:47:54.299Z,120
2017-12-27T11:48:54.021Z,115
2017-12-27T11:49:53.722Z,115
2017-12-27T11:50:53.933Z,110
2017-12-27T11:51:53.681Z,105
2017-12-27T11:52:54.180Z,100
2017-12-27T11:53:53.659Z,95
2017-12-27T11:54:53.423Z,100
2017-12-27T11:55:54.150Z,100
2017-12-27T11:56:53.641Z,100
2017-12-27T11:57:53.403Z,105
2017-12-27T11:58:53.926Z,110
2017-12-27T11:59:53.881Z,110
2017-12-27T12:00:53.625Z,110
2017-12-27T12:01:53.613Z,110
2017-12-27T12:02:53.626Z,110
2017-12-27T12:03:53.855Z,105
2017-12-27T12:04:54.115Z,105
2017-12-27T12:05:53.622Z,105
2017-12-27T12:06:53.604Z,100
2017-12-27T12:07:53.605Z,100
2017-12-27T12:08:53.831Z,100
2017-12-27T12:09:53.604Z,100
2017-12-27T12:10:53.584Z,100
2017-12-27T12:11:53.846Z,100
2017-12-27T12:12:53.841Z,95
2017-12-27T12:13:53.821Z,95
2017-12-27T12:14:53.805Z,95
2017-12-27T12:15:53.813Z,90
2017-12-27T12:16:53.551Z,90
2017-12-27T12:17:53.787Z,95
2017-12-27T12:18:53.289Z,95
2017-12-27T12:19:54.049Z,90
2017-12-27T12:20:53.769Z,90
2017-12-27T12:21:53.783Z,90
2017-12-27T12:22:53.512Z,85
2017-12-27T12:23:53.515Z,90
2017-12-27T12:24:54.003Z,90
2017-12-27T12:25:53.745Z,90
2017-12-27T12:26:54.001Z,90
2017-12-27T12:27:53.739Z,90
2017-12-27T12:28:52.976Z,90
2017-12-27T12:29:53.730Z,90
2017-12-27T12:30:53.470Z,95
2017-12-27T12:31:53.716Z,85
2017-12-27T12:32:53.460Z,80
2017-12-27T12:33:53.451Z,80
2017-12-27T12:34:53.709Z,75
2017-12-27T12:35:53.444Z,75
2017-12-27T12:36:53.702Z,70
2017-12-27T12:37:53.429Z,65
2017-12-27T12:38:53.946Z,65
2017-12-27T12:39:53.686Z,60
2017-12-27T12:40:53.426Z,55
2017-12-27T12:41:53.916Z,55
2017-12-27T12:42:53.656Z,55
2017-12-27T12:43:53.905Z,55
2017-12-27T12:44:53.656Z,55
2017-12-27T12:45:53.146Z,60
2017-12-27T12:46:53.638Z,60
2017-12-27T12:47:53.436Z,60
2017-12-27T12:48:53.377Z,65
2017-12-27T12:49:53.385Z,65
2017-12-27T12:50:53.630Z,65
2017-12-27T12:51:53.715Z,70
2017-12-27T12:52:53.613Z,65
2017-12-27T12:53:53.610Z,65
2017-12-27T12:54:53.600Z,60
2017-12-27T12:55:53.337Z,55
2017-12-27T12:56:53.587Z,50
2017-12-27T12:57:53.091Z,50
2017-12-27T12:58:53.356Z,50
2017-12-27T12:59:53.317Z,50
2017-12-27T13:00:53.828Z,50
2017-12-27T13:01:53.306Z,50
2017-12-27T13:02:53.313Z,50
2017-12-27T13:03:53.308Z,50
2017-12-27T13:04:53.314Z,50
2017-12-27T13:05:53.308Z,50
2017-12-27T13:06:53.584Z,50
2017-12-27T13:07:53.319Z,50
2017-12-27T13:08:52.798Z,45
2017-12-27T13:09:53.522Z,45
2017-12-27T13:10:53.016Z,45
2017-12-27T13:11:53.268Z,40
2017-12-27T13:12:53.782Z,40
2017-12-27T13:13:53.245Z,40
2017-12-27T13:14:53.491Z,40
2017-12-27T13:15:52.995Z,40
2017-12-27T13:16:53.254Z,40
2017-12-27T13:17:53.790Z,40
2017-12-27T13:18:53.727Z,40
2017-12-27T13:19:53.476Z,40
2017-12-27T13:20:53.723Z,35
2017-12-27T13:21:53.210Z,40
2017-12-27T13:22:53.457Z,40
2017-12-27T13:23:53.450Z,45
2017-12-27T13:24:53.458Z,45
2017-12-27T13:25:53.437Z,45
2017-12-27T13:26:53.202Z,45
2017-12-27T13:27:52.674Z,45
2017-12-27T13:28:53.426Z,45
2017-12-27T13:29:52.949Z,45
2017-12-27T13:30:53.681Z,40
2017-12-27T13:31:53.416Z,40
2017-12-27T13:32:53.437Z,40
2017-12-27T13:33:53.145Z,40
2017-12-27T13:34:53.385Z,35
2017-12-27T13:35:53.637Z,35
2017-12-27T13:36:53.387Z,35
2017-12-27T13:37:53.409Z,35
2017-12-27T13:38:53.387Z,35
2017-12-27T13:39:53.632Z,35
2017-12-27T13:40:53.359Z,35
2017-12-27T13:41:52.844Z,35
2017-12-27T13:42:53.093Z,35
2017-12-27T13:43:52.844Z,35
2017-12-27T13:44:52.591Z,35
2017-12-27T13:45:53.409Z,40
2017-12-27T13:46:53.601Z,40
2017-12-27T13:47:53.068Z,40
2017-12-27T13:48:53.616Z,40
2017-12-27T13:49:53.573Z,40
2017-12-27T13:50:53.303Z,40
2017-12-27T13:51:53.322Z,40
2017-12-27T13:52:53.319Z,40
2017-12-27T13:53:53.289Z,40
2017-12-27T13:54:53.281Z,35
2017-12-27T13:55:52.777Z,35
2017-12-27T13:56:53.021Z,35
2017-12-27T13:57:53.062Z,30
2017-12-27T13:58:53.266Z,30
2017-12-27T13:59:53.296Z,30
2017-12-27T14:00:53.264Z,30
2017-12-27T14:01:53.265Z,30
2017-12-27T14:02:53.243Z,30
2017-12-27T14:03:53.250Z,30
2017-12-27T14:04:52.988Z,30
2017-12-27T14:05:53.232Z,30
2017-12-27T14:06:52.973Z,30
2017-12-27T14:07:53.247Z,25
2017-12-27T14:08:52.964Z,25
2017-12-27T14:09:53.465Z,25
2017-12-27T14:10:52.703Z,25
2017-12-27T14:11:53.199Z,25
2017-12-27T14:12:53.227Z,25
2017-12-27T14:13:53.202Z,25
2017-12-27T14:14:53.184Z,25
2017-12-27T14:15:53.440Z,25
2017-12-27T14:16:52.941Z,25
2017-12-27T14:17:52.910Z,25
2017-12-27T14:18:53.171Z,25
2017-12-27T14:19:53.168Z,20
2017-12-27T14:20:52.914Z,20
2017-12-27T14:21:53.393Z,20
2017-12-27T14:22:52.881Z,20
2017-12-27T14:23:52.885Z,20
2017-12-27T14:24:53.136Z,20
2017-12-27T14:25:53.106Z,20
2017-12-27T14:26:52.611Z,20
2017-12-27T14:27:53.357Z,20
2017-12-27T14:28:53.109Z,20
2017-12-27T14:29:53.101Z,15
2017-12-27T14:30:52.598Z,15
2017-12-27T14:31:52.890Z,15
2017-12-27T14:32:52.581Z,15
2017-12-27T14:33:52.558Z,15
2017-12-27T14:34:52.805Z,15
2017-12-27T14:35:53.059Z,15
2017-12-27T14:36:52.804Z,15
2017-12-27T14:37:52.548Z,15
2017-12-27T14:38:52.782Z,15
2017-12-27T14:39:53.291Z,15
2017-12-27T14:40:52.771Z,15
2017-12-27T14:41:52.774Z,15
2017-12-27T14:42:53.020Z,15
2017-12-27T14:43:52.754Z,15
2017-12-27T14:44:53.264Z,15
2017-12-27T14:45:52.742Z,15
2017-12-27T14:46:53.080Z,15
2017-12-27T14:47:52.765Z,15
2017-12-27T14:48:52.988Z,15
2017-12-27T14:49:52.746Z,15
2017-12-27T14:50:52.719Z,15
2017-12-27T14:51:52.961Z,10
2017-12-27T14:52:52.963Z,10
2017-12-27T14:53:52.950Z,10
2017-12-27T14:54:52.964Z,10
2017-12-27T14:55:52.959Z,10
2017-12-27T14:56:52.704Z,10
2017-12-27T14:57:52.931Z,10
2017-12-27T14:58:53.201Z,10
2017-12-27T14:59:53.166Z,10